createdAt,value
2024-03-16T00:02:15.420Z,18.27
2024-03-16T00:04:44.731Z,21.35
2024-03-16T00:07:12.185Z,23.00
2024-03-16T00:09:40.311Z,19.20
2024-03-16T00:12:07.731Z,13.40
2024-03-16T00:14:34.973Z,15.73
2024-03-16T00:17:02.667Z,15.95
2024-03-16T00:19:29.779Z,19.58
2024-03-16T00:21:57.498Z,15.10
2024-03-16T00:24:27.516Z,20.05
2024-03-16T00:26:55.750Z,17.15
2024-03-16T00:29:23.340Z,15.50
2024-03-16T00:31:53.143Z,17.55
2024-03-16T00:34:20.949Z,20.75
2024-03-16T00:36:49.100Z,14.55
2024-03-16T00:39:20.490Z,18.77
2024-03-16T00:41:49.102Z,15.27
2024-03-16T00:44:16.224Z,21.45
2024-03-16T00:46:43.348Z,23.50
2024-03-16T00:49:11.004Z,14.43
2024-03-16T00:51:38.322Z,18.05
2024-03-16T00:54:07.464Z,20.13
2024-03-16T00:56:35.224Z,22.38
2024-03-16T00:59:02.744Z,19.10
2024-03-16T01:01:35.736Z,20.38
2024-03-16T01:04:03.944Z,20.73
2024-03-16T01:06:31.282Z,17.08
2024-03-16T01:09:00.977Z,22.48
2024-03-16T01:11:28.310Z,15.30
2024-03-16T01:13:58.684Z,19.73
2024-03-16T01:16:28.790Z,24.17
2024-03-16T01:18:56.130Z,19.77
2024-03-16T01:21:23.700Z,17.52
2024-03-16T01:23:50.960Z,18.95
2024-03-16T01:26:18.135Z,16.55
2024-03-16T01:28:45.222Z,17.15
2024-03-16T01:31:14.940Z,12.40
2024-03-16T01:33:42.466Z,18.45
2024-03-16T01:36:09.618Z,24.30
2024-03-16T01:38:37.852Z,20.83
2024-03-16T01:41:04.974Z,21.23
2024-03-16T01:43:32.365Z,24.33
2024-03-16T01:45:59.674Z,15.23
2024-03-16T01:48:27.136Z,19.20
2024-03-16T01:50:55.822Z,16.00
2024-03-16T01:53:23.061Z,18.58
2024-03-16T01:55:50.411Z,26.88
2024-03-16T01:58:17.639Z,23.27
2024-03-16T02:00:49.321Z,21.33
2024-03-16T02:03:16.668Z,21.38
2024-03-16T02:05:43.940Z,25.27
2024-03-16T02:08:13.081Z,29.30
2024-03-16T02:10:40.370Z,23.25
2024-03-16T02:13:07.815Z,22.83
2024-03-16T02:15:35.144Z,24.10
2024-03-16T02:18:02.855Z,23.05
2024-03-16T02:20:33.014Z,18.10
2024-03-16T02:23:01.245Z,15.48
2024-03-16T02:25:29.122Z,11.10
2024-03-16T02:27:56.529Z,7.60
2024-03-16T02:30:24.022Z,8.68
2024-03-16T02:32:51.185Z,12.00
2024-03-16T02:35:18.459Z,6.05
2024-03-16T02:37:45.610Z,12.85
2024-03-16T02:40:15.685Z,9.77
2024-03-16T02:42:44.473Z,8.32
2024-03-16T02:45:12.523Z,9.45
2024-03-16T02:47:40.191Z,10.55
2024-03-16T02:50:10.644Z,5.93
2024-03-16T02:52:38.755Z,6.50
2024-03-16T02:55:06.804Z,8.40
2024-03-16T02:57:34.023Z,6.18
2024-03-16T03:00:01.270Z,4.95
2024-03-16T03:02:29.601Z,3.75
2024-03-16T03:04:56.731Z,4.55
2024-03-16T03:07:24.268Z,2.65
2024-03-16T03:09:51.537Z,3.88
2024-03-16T03:12:19.207Z,7.10
2024-03-16T03:14:46.392Z,4.25
2024-03-16T03:17:13.502Z,4.88
2024-03-16T03:19:40.678Z,8.07
2024-03-16T03:22:07.880Z,5.85
2024-03-16T03:24:35.369Z,8.75
2024-03-16T03:27:06.234Z,5.00
2024-03-16T03:29:36.093Z,4.00
2024-03-16T03:32:03.908Z,7.75
2024-03-16T03:34:33.023Z,2.80
2024-03-16T03:37:00.122Z,5.25
2024-03-16T03:39:27.341Z,5.95
2024-03-16T03:41:55.631Z,6.82
2024-03-16T03:44:22.847Z,3.97
2024-03-16T03:46:53.538Z,7.97
2024-03-16T03:49:41.687Z,4.85
2024-03-16T03:52:09.142Z,6.75
2024-03-16T03:54:38.299Z,4.63
2024-03-16T03:57:07.224Z,4.18
2024-03-16T03:59:34.431Z,5.75
2024-03-16T04:02:01.579Z,9.15
2024-03-16T04:04:28.672Z,4.97
2024-03-16T04:06:56.187Z,6.75
2024-03-16T04:09:26.493Z,4.68
2024-03-16T04:11:56.890Z,6.15
2024-03-16T04:14:24.385Z,7.95
2024-03-16T04:16:51.533Z,5.18
2024-03-16T04:19:18.746Z,6.03
2024-03-16T04:21:51.521Z,3.80
2024-03-16T04:24:18.764Z,7.13
2024-03-16T04:26:46.323Z,6.60
2024-03-16T04:29:13.423Z,3.60
2024-03-16T04:31:40.517Z,8.05
2024-03-16T04:34:07.691Z,8.82
2024-03-16T04:36:34.896Z,5.03
2024-03-16T04:39:02.064Z,5.38
2024-03-16T04:41:34.612Z,4.53
2024-03-16T04:46:34.724Z,5.53
2024-03-16T04:49:02.073Z,3.83
2024-03-16T04:51:29.260Z,6.80
2024-03-16T04:53:56.434Z,7.20
2024-03-16T04:56:27.101Z,5.22
2024-03-16T04:58:54.165Z,3.60
2024-03-16T05:01:24.912Z,5.63
2024-03-16T05:03:52.171Z,6.80
2024-03-16T05:06:20.597Z,7.72
2024-03-16T05:08:48.772Z,4.18
2024-03-16T05:11:15.968Z,3.95
2024-03-16T05:13:43.381Z,7.78
2024-03-16T05:16:10.577Z,3.38
2024-03-16T05:18:37.755Z,6.30
2024-03-16T05:21:06.128Z,6.40
2024-03-16T05:23:33.369Z,7.00
2024-03-16T05:26:03.615Z,9.10
2024-03-16T05:28:30.780Z,6.38
2024-03-16T05:30:58.083Z,4.18
2024-03-16T05:33:25.217Z,7.63
2024-03-16T05:35:52.589Z,7.45
2024-03-16T05:38:19.711Z,5.80
2024-03-16T05:40:48.792Z,5.00
2024-03-16T05:43:16.422Z,5.95
2024-03-16T05:45:44.122Z,8.10
2024-03-16T05:48:11.753Z,5.18
2024-03-16T05:50:42.479Z,6.10
2024-03-16T05:53:09.764Z,5.00
2024-03-16T05:55:36.928Z,9.40
2024-03-16T05:58:04.316Z,5.10
2024-03-16T06:00:31.606Z,4.82
2024-03-16T06:03:02.126Z,3.47
2024-03-16T06:05:29.227Z,3.78
2024-03-16T06:07:56.574Z,3.88
2024-03-16T06:10:23.823Z,2.42
2024-03-16T06:12:51.423Z,6.85
2024-03-16T06:15:18.564Z,5.43
2024-03-16T06:17:45.970Z,3.13
2024-03-16T06:20:16.684Z,5.82
2024-03-16T06:22:43.908Z,5.25
2024-03-16T06:25:12.951Z,4.35
2024-03-16T06:27:51.171Z,2.67
2024-03-16T06:30:19.331Z,4.03
2024-03-16T06:33:05.279Z,4.18
2024-03-16T06:35:33.488Z,5.25
2024-03-16T06:38:00.659Z,5.25
2024-03-16T06:40:27.863Z,3.53
2024-03-16T06:42:55.058Z,5.10
2024-03-16T06:45:22.169Z,4.20
2024-03-16T06:47:49.290Z,4.20
2024-03-16T06:50:16.566Z,9.60
2024-03-16T06:52:43.670Z,4.80
2024-03-16T06:55:10.809Z,5.65
2024-03-16T06:57:38.026Z,4.80
2024-03-16T07:00:06.136Z,3.13
2024-03-16T07:02:33.471Z,2.95
2024-03-16T07:05:02.022Z,8.27
2024-03-16T07:07:29.623Z,6.18
2024-03-16T07:09:56.755Z,7.15
2024-03-16T07:12:23.974Z,8.55
2024-03-16T07:14:51.107Z,4.25
2024-03-16T07:17:18.495Z,3.47
2024-03-16T07:19:45.886Z,4.03
2024-03-16T07:22:14.389Z,5.22
2024-03-16T07:24:43.366Z,6.00
2024-03-16T07:27:11.222Z,7.00
2024-03-16T07:29:38.485Z,6.90
2024-03-16T07:32:05.929Z,6.05
2024-03-16T07:34:34.961Z,5.63
2024-03-16T07:37:02.614Z,8.27
2024-03-16T07:39:29.748Z,7.82
2024-03-16T07:41:56.978Z,2.97
2024-03-16T07:44:24.082Z,3.22
2024-03-16T07:46:51.280Z,4.90
2024-03-16T07:49:18.399Z,6.30
2024-03-16T07:51:46.490Z,6.07
2024-03-16T07:54:13.803Z,8.50
2024-03-16T07:56:41.396Z,7.30
2024-03-16T07:59:11.037Z,3.22
2024-03-16T08:01:38.538Z,6.32
2024-03-16T08:04:05.727Z,4.25
2024-03-16T08:06:33.006Z,5.57
2024-03-16T08:09:00.226Z,6.45
2024-03-16T08:11:29.309Z,4.88
2024-03-16T08:13:56.493Z,8.98
2024-03-16T08:16:23.744Z,6.63
2024-03-16T08:18:50.936Z,5.88
2024-03-16T08:21:18.732Z,4.82
2024-03-16T08:23:45.824Z,3.42
2024-03-16T08:26:14.455Z,7.15
2024-03-16T08:28:41.628Z,4.82
2024-03-16T08:31:09.721Z,6.57
2024-03-16T08:33:37.298Z,7.72
2024-03-16T08:36:07.332Z,5.05
2024-03-16T08:38:34.867Z,4.60
2024-03-16T08:41:05.507Z,5.75
2024-03-16T08:43:33.574Z,7.88
2024-03-16T08:46:08.193Z,6.38
2024-03-16T08:48:35.743Z,3.40
2024-03-16T08:51:05.955Z,7.05
2024-03-16T08:53:33.302Z,3.97
2024-03-16T08:56:01.372Z,3.28
2024-03-16T08:58:29.105Z,8.35
2024-03-16T09:00:56.512Z,3.22
2024-03-16T09:03:23.879Z,4.30
2024-03-16T09:05:51.145Z,6.38
2024-03-16T09:08:18.249Z,2.40
2024-03-16T09:10:45.705Z,3.38
2024-03-16T09:13:13.245Z,5.05
2024-03-16T09:15:40.769Z,3.72
2024-03-16T09:18:08.108Z,10.85
2024-03-16T09:20:36.825Z,5.72
2024-03-16T09:23:04.046Z,4.60
2024-03-16T09:25:31.879Z,9.70
2024-03-16T09:27:59.231Z,3.92
2024-03-16T09:30:26.470Z,5.68
2024-03-16T09:32:53.604Z,5.55
2024-03-16T09:35:20.793Z,7.63
2024-03-16T09:37:48.816Z,4.50
2024-03-16T09:40:16.138Z,5.93
2024-03-16T09:42:43.943Z,7.53
